Time;durP1;ratioP1;P1;durP2;ratioP2;P2;SDS_P1;SDS_P2;PMS_P1;PMS_P2;Temp;Humidity;BMP_temperature;BMP_pressure;BME280_temperature;BME280_humidity;BME280_pressure;Samples;Min_cycle;Max_cycle;Signal;HPM_P1;HPM_P2
2021/12/23 00:01:40;;;;;;;23.60;9.93;;;-4.00;99.90;;;;;;4997779;28;20026;-86
2021/12/23 00:04:06;;;;;;;22.27;9.83;;;-4.00;99.90;;;;;;5001623;28;20094;-86
2021/12/23 00:06:32;;;;;;;25.87;9.53;;;-4.00;99.90;;;;;;4991089;28;20030;-86
2021/12/23 00:09:00;;;;;;;24.60;9.83;;;-4.00;99.90;;;;;;5001820;28;20483;-86
2021/12/23 00:11:27;;;;;;;24.23;8.57;;;-3.90;99.90;;;;;;5005898;28;20023;-86
2021/12/23 00:14:02;;;;;;;22.80;8.90;;;-3.90;99.90;;;;;;4991803;28;20112;-86
2021/12/23 00:16:49;;;;;;;23.40;8.67;;;-3.90;99.90;;;;;;4999445;28;20019;-86
2021/12/23 00:19:35;;;;;;;22.20;9.00;;;-3.80;99.90;;;;;;4996164;28;20043;-87
2021/12/23 00:24:46;;;;;;;24.90;9.07;;;-3.80;99.90;;;;;;5007753;28;20029;-86
2021/12/23 00:27:12;;;;;;;22.17;9.20;;;-3.80;99.90;;;;;;5000827;28;20019;-85
2021/12/23 00:29:39;;;;;;;23.53;9.57;;;-3.80;99.90;;;;;;5004192;28;20015;-86
2021/12/23 00:32:07;;;;;;;26.03;9.73;;;-3.90;99.90;;;;;;4987993;28;20453;-86
2021/12/23 00:34:33;;;;;;;24.70;9.47;;;-3.90;99.90;;;;;;4989716;28;20030;-86
2021/12/23 00:37:00;;;;;;;30.37;10.23;;;-3.90;99.90;;;;;;4999573;28;20024;-86
2021/12/23 00:39:27;;;;;;;25.37;8.67;;;-3.90;99.90;;;;;;4986698;28;20029;-86
2021/12/23 00:41:54;;;;;;;24.73;9.43;;;-3.90;99.90;;;;;;4988133;28;21938;-86
2021/12/23 00:44:20;;;;;;;24.47;8.77;;;-3.90;99.90;;;;;;4987353;28;20120;-86
2021/12/23 00:46:46;;;;;;;28.73;9.37;;;-3.90;99.90;;;;;;4988447;28;20046;-86
2021/12/23 00:49:12;;;;;;;23.60;8.43;;;-3.90;99.90;;;;;;4989235;28;20041;-86
2021/12/23 00:51:37;;;;;;;34.80;11.27;;;-3.90;99.90;;;;;;5004663;28;20081;-87
2021/12/23 00:54:06;;;;;;;30.53;9.80;;;-3.90;99.90;;;;;;4990722;28;20029;-86
2021/12/23 00:56:34;;;;;;;25.63;10.50;;;-3.90;99.90;;;;;;4985466;28;20488;-85
2021/12/23 00:59:00;;;;;;;23.40;9.43;;;-3.90;99.90;;;;;;5001006;28;20027;-86
2021/12/23 01:01:26;;;;;;;24.70;8.93;;;-3.90;99.90;;;;;;4992574;28;20447;-86
2021/12/23 01:03:52;;;;;;;22.63;8.77;;;-3.80;99.90;;;;;;5010648;28;20022;-86
2021/12/23 01:06:18;;;;;;;21.67;9.30;;;-3.90;99.90;;;;;;5007174;28;20041;-86
2021/12/23 01:08:43;;;;;;;26.03;9.27;;;-3.90;99.90;;;;;;4991127;28;20433;-86
2021/12/23 01:11:09;;;;;;;22.60;10.33;;;-3.80;99.90;;;;;;5002881;28;20030;-86
2021/12/23 01:13:37;;;;;;;22.53;8.63;;;-3.80;99.90;;;;;;4988705;28;20515;-86
2021/12/23 01:16:13;;;;;;;24.70;8.70;;;-3.80;99.90;;;;;;5003210;28;20024;-86
2021/12/23 01:18:44;;;;;;;29.37;7.83;;;-3.80;99.90;;;;;;4999100;28;20029;-86
2021/12/23 01:21:16;;;;;;;27.63;9.57;;;-3.90;99.90;;;;;;4989931;28;20030;-86
2021/12/23 01:23:44;;;;;;;25.50;9.73;;;-3.90;99.90;;;;;;5003968;28;20481;-86
2021/12/23 01:26:13;;;;;;;19.57;8.53;;;-3.90;99.90;;;;;;4996303;28;20027;-86
2021/12/23 01:28:39;;;;;;;22.73;8.50;;;-3.80;99.90;;;;;;4987327;28;20022;-86
2021/12/23 01:31:05;;;;;;;21.87;8.57;;;-3.80;99.90;;;;;;5001456;28;20085;-86
2021/12/23 01:33:30;;;;;;;22.37;8.40;;;-3.80;99.90;;;;;;4991998;28;20126;-86
2021/12/23 01:35:56;;;;;;;22.63;8.30;;;-3.80;99.90;;;;;;4985599;28;20028;-86
2021/12/23 01:38:22;;;;;;;25.57;9.47;;;-3.80;99.90;;;;;;5005407;28;20459;-86
2021/12/23 01:40:47;;;;;;;20.53;8.00;;;-3.80;99.90;;;;;;5003047;28;20034;-86
2021/12/23 01:43:16;;;;;;;24.93;9.67;;;-3.70;99.90;;;;;;5004279;28;20037;-86
2021/12/23 01:45:45;;;;;;;24.63;9.30;;;-3.80;99.90;;;;;;4986350;28;20048;-86
2021/12/23 01:48:11;;;;;;;22.37;8.50;;;-3.80;99.90;;;;;;4995579;28;20056;-86
2021/12/23 01:50:39;;;;;;;23.17;10.23;;;-3.80;99.90;;;;;;4997222;28;20034;-86
2021/12/23 01:53:04;;;;;;;25.83;8.70;;;-3.80;99.90;;;;;;5005226;28;20038;-86
2021/12/23 01:55:30;;;;;;;28.53;9.40;;;-3.80;99.90;;;;;;4987492;28;20539;-86
2021/12/23 01:57:57;;;;;;;27.90;8.50;;;-3.80;99.90;;;;;;5012153;28;20034;-86
2021/12/23 02:00:26;;;;;;;26.13;8.43;;;-3.80;99.90;;;;;;4994295;28;20030;-86
2021/12/23 02:02:53;;;;;;;25.90;9.20;;;-3.80;99.90;;;;;;4993574;28;20030;-86
2021/12/23 02:05:20;;;;;;;23.93;8.03;;;-3.80;99.90;;;;;;5001512;28;20018;-86
2021/12/23 02:07:45;;;;;;;22.10;8.40;;;-3.80;99.90;;;;;;5006128;28;20030;-86
2021/12/23 02:10:11;;;;;;;22.40;8.37;;;-3.80;99.90;;;;;;4994307;28;20042;-86
2021/12/23 02:12:42;;;;;;;22.20;8.20;;;-3.80;99.90;;;;;;5000263;28;20034;-87
2021/12/23 02:15:08;;;;;;;23.63;8.33;;;-3.80;99.90;;;;;;5008823;28;20033;-86
2021/12/23 02:17:37;;;;;;;20.33;9.03;;;-3.90;99.90;;;;;;4986159;28;20519;-86
2021/12/23 02:20:08;;;;;;;22.70;8.87;;;-3.90;99.90;;;;;;5004089;28;20585;-85
2021/12/23 02:22:34;;;;;;;23.77;8.40;;;-3.90;99.90;;;;;;4983040;28;20022;-86
2021/12/23 02:24:59;;;;;;;18.33;8.43;;;-3.90;99.90;;;;;;4999353;28;20101;-86
2021/12/23 02:27:25;;;;;;;25.50;9.53;;;-4.00;99.90;;;;;;4986529;28;20076;-86
2021/12/23 02:29:51;;;;;;;20.93;8.63;;;-3.90;99.90;;;;;;5002051;28;20026;-86
2021/12/23 02:32:17;;;;;;;19.43;7.47;;;-3.90;99.90;;;;;;4985565;28;20038;-86
2021/12/23 02:34:42;;;;;;;24.73;8.30;;;-4.00;99.90;;;;;;4990425;28;20026;-85
2021/12/23 02:37:08;;;;;;;22.87;8.37;;;-4.00;99.90;;;;;;5001342;28;20049;-86
2021/12/23 02:39:35;;;;;;;18.40;7.73;;;-4.00;99.90;;;;;;4990977;28;20377;-86
2021/12/23 02:42:00;;;;;;;19.97;8.67;;;-3.90;99.90;;;;;;4992081;28;20444;-86
2021/12/23 02:44:26;;;;;;;22.70;7.47;;;-3.90;99.90;;;;;;4991185;28;20133;-86
2021/12/23 02:46:52;;;;;;;23.10;9.40;;;-3.90;99.90;;;;;;5001486;28;20104;-86
2021/12/23 02:49:18;;;;;;;20.73;7.63;;;-3.90;99.90;;;;;;5006221;28;20165;-86
2021/12/23 02:51:44;;;;;;;22.57;7.67;;;-3.90;99.90;;;;;;4981325;28;20389;-86
2021/12/23 02:54:09;;;;;;;24.80;8.27;;;-3.90;99.90;;;;;;4996191;28;20018;-86
2021/12/23 02:56:35;;;;;;;19.93;7.40;;;-3.90;99.90;;;;;;5003678;28;20557;-85
2021/12/23 02:59:01;;;;;;;21.17;7.90;;;-3.90;99.90;;;;;;5003370;28;20028;-86
2021/12/23 03:01:27;;;;;;;21.20;8.50;;;-3.90;99.90;;;;;;4999855;28;20823;-86
2021/12/23 03:03:53;;;;;;;21.63;7.53;;;-3.80;99.90;;;;;;4987645;28;20026;-86
2021/12/23 03:06:21;;;;;;;21.30;7.37;;;-3.90;99.90;;;;;;4994626;28;20079;-86
2021/12/23 03:08:52;;;;;;;18.27;6.77;;;-3.90;99.90;;;;;;4986782;28;20034;-86
2021/12/23 03:11:21;;;;;;;26.45;7.18;;;-3.90;99.90;;;;;;4989696;28;20037;-86
2021/12/23 03:13:47;;;;;;;19.20;7.63;;;-3.80;99.90;;;;;;4988589;28;20227;-86
2021/12/23 03:16:17;;;;;;;23.87;8.00;;;-3.80;99.90;;;;;;4988547;28;20033;-86
2021/12/23 03:18:43;;;;;;;23.00;7.63;;;-3.80;99.90;;;;;;4991222;28;20026;-86
2021/12/23 03:21:08;;;;;;;20.80;6.93;;;-3.80;99.90;;;;;;4991848;28;20030;-86
2021/12/23 03:23:34;;;;;;;20.73;7.97;;;-3.70;99.90;;;;;;4996205;28;20379;-86
2021/12/23 03:26:00;;;;;;;22.17;7.87;;;-3.70;99.90;;;;;;5001472;28;20637;-86
2021/12/23 03:28:26;;;;;;;21.13;6.93;;;-3.70;99.90;;;;;;4997496;28;20089;-86
2021/12/23 03:30:52;;;;;;;26.23;8.93;;;-3.70;99.90;;;;;;4988080;28;20737;-86
2021/12/23 03:33:18;;;;;;;20.27;6.77;;;-3.70;99.90;;;;;;4997086;28;20025;-86
2021/12/23 03:35:45;;;;;;;22.17;8.07;;;-3.70;99.90;;;;;;4994322;28;20080;-86
2021/12/23 03:38:11;;;;;;;20.30;7.33;;;-3.60;99.90;;;;;;4994037;28;20076;-86
2021/12/23 03:40:37;;;;;;;20.93;7.03;;;-3.60;99.90;;;;;;4986114;28;20117;-86
2021/12/23 03:43:03;;;;;;;19.17;7.40;;;-3.60;99.90;;;;;;5000151;28;20066;-86
2021/12/23 03:45:29;;;;;;;23.67;7.53;;;-3.60;99.90;;;;;;4985228;28;20022;-86
2021/12/23 03:47:55;;;;;;;17.00;6.17;;;-3.60;99.90;;;;;;4985631;28;20022;-86
2021/12/23 03:50:23;;;;;;;21.10;6.37;;;-3.60;99.90;;;;;;4999085;28;20045;-85
2021/12/23 03:52:49;;;;;;;18.20;6.93;;;-3.60;99.90;;;;;;4988099;28;20025;-86
2021/12/23 03:55:16;;;;;;;16.23;5.93;;;-3.50;99.90;;;;;;4990370;28;20038;-86
2021/12/23 03:57:41;;;;;;;13.07;5.00;;;-3.50;99.90;;;;;;4986199;28;20459;-87
2021/12/23 04:00:11;;;;;;;20.27;7.93;;;-3.50;99.90;;;;;;4989822;28;20097;-86
2021/12/23 04:02:37;;;;;;;16.03;6.83;;;-3.40;99.90;;;;;;4997835;28;20037;-86
2021/12/23 04:05:06;;;;;;;19.33;6.63;;;-3.50;99.90;;;;;;4989405;28;20365;-86
2021/12/23 04:07:32;;;;;;;20.70;6.80;;;-3.40;99.90;;;;;;4975925;28;20404;-86
2021/12/23 04:15:16;;;;;;;16.73;6.63;;;-3.50;99.90;;;;;;5047088;28;20053;-85
2021/12/23 04:17:50;;;;;;;20.37;7.07;;;-3.50;99.90;;;;;;5031093;28;20030;-85
2021/12/23 04:20:45;;;;;;;;;;;;;;;;;;;;;
2021/12/23 04:23:59;;;;;;;;;;;;;;;;;;;;;
2021/12/23 04:29:40;;;;;;;15.80;6.33;;;-3.50;99.90;;;;;;5026644;28;20052;-86
2021/12/23 04:32:17;;;;;;;20.23;8.00;;;-3.50;99.90;;;;;;5028582;28;20483;-88
2021/12/23 04:34:53;;;;;;;16.73;6.70;;;-3.50;99.90;;;;;;5024964;28;20053;-86
2021/12/23 04:37:33;;;;;;;20.07;6.33;;;-3.50;99.90;;;;;;5023063;28;20060;-86
2021/12/23 04:40:22;;;;;;;16.97;6.37;;;-3.50;99.90;;;;;;5005900;28;20033;-87
2021/12/23 04:42:55;;;;;;;18.63;6.27;;;-3.40;99.90;;;;;;5022838;28;20034;-86
2021/12/23 04:45:43;;;;;;;20.13;7.93;;;-3.40;99.90;;;;;;5007128;28;20022;-86
2021/12/23 04:48:38;;;;;;;23.87;8.47;;;-3.40;99.90;;;;;;5016678;28;20025;-87
2021/12/23 04:51:15;;;;;;;15.27;5.97;;;-3.40;99.90;;;;;;5016560;28;20045;-87
2021/12/23 04:53:49;;;;;;;16.77;6.53;;;-3.30;99.90;;;;;;5024288;28;20022;-86
2021/12/23 04:56:36;;;;;;;16.20;5.47;;;-3.40;99.90;;;;;;5020110;28;20041;-86
2021/12/23 04:59:22;;;;;;;20.37;6.60;;;-3.30;99.90;;;;;;5005852;28;20022;-87
2021/12/23 05:05:22;;;;;;;15.65;5.53;;;-3.40;99.90;;;;;;4982911;28;20076;-87
2021/12/23 05:08:12;;;;;;;19.57;6.93;;;-3.40;99.90;;;;;;5018762;28;20030;-85
2021/12/23 05:11:10;;;;;;;18.17;7.03;;;-3.40;99.90;;;;;;5011233;28;20026;-87
2021/12/23 05:13:56;;;;;;;19.60;7.47;;;-3.30;99.90;;;;;;5010659;28;20034;-85
2021/12/23 05:16:31;;;;;;;18.23;6.47;;;-3.30;99.90;;;;;;5023965;28;20100;-86
2021/12/23 05:19:08;;;;;;;17.40;6.30;;;-3.30;99.90;;;;;;5010744;28;20045;-85
2021/12/23 05:21:39;;;;;;;17.47;6.30;;;-3.30;99.90;;;;;;5007528;28;20034;-86
2021/12/23 05:24:24;;;;;;;21.73;7.77;;;-3.20;99.90;;;;;;5015207;28;20120;-83
2021/12/23 05:29:46;;;;;;;16.43;6.63;;;-3.20;99.90;;;;;;5010195;28;20030;-85
2021/12/23 05:32:24;;;;;;;18.47;6.60;;;-3.20;99.90;;;;;;5005219;28;20026;-86
2021/12/23 05:34:53;;;;;;;16.57;6.23;;;-3.30;99.90;;;;;;5005826;28;20028;-86
2021/12/23 05:37:24;;;;;;;18.33;6.63;;;-3.20;99.90;;;;;;5003833;28;20029;-85
2021/12/23 05:39:55;;;;;;;17.33;6.80;;;-3.30;99.90;;;;;;5032479;28;20499;-86
2021/12/23 05:42:24;;;;;;;11.02;4.20;;;-3.30;99.90;;;;;;5021194;28;20033;-85
2021/12/23 05:44:55;;;;;;;21.50;6.33;;;-3.30;99.90;;;;;;5016915;28;20028;-86
2021/12/23 05:47:34;;;;;;;15.97;5.70;;;-3.30;99.90;;;;;;5038815;28;20040;-86
2021/12/23 05:50:06;;;;;;;15.43;6.07;;;-3.30;99.90;;;;;;5021370;28;20026;-85
2021/12/23 05:52:53;;;;;;;19.13;6.85;;;-3.30;99.90;;;;;;5018290;28;20037;-87
2021/12/23 05:55:32;;;;;;;15.53;5.97;;;-3.30;99.90;;;;;;5037505;28;20376;-85
2021/12/23 05:58:00;;;;;;;18.20;6.00;;;-3.20;99.90;;;;;;5018571;28;20021;-86
2021/12/23 06:00:48;;;;;;;17.93;6.53;;;-3.40;99.90;;;;;;5014956;28;20033;-86
2021/12/23 06:03:35;;;;;;;15.13;5.57;;;-3.40;99.90;;;;;;5018450;28;20025;-85
2021/12/23 06:06:19;;;;;;;18.10;6.70;;;-3.40;99.90;;;;;;5018540;28;20683;-85
2021/12/23 06:11:41;;;;;;;15.77;5.40;;;-3.30;99.90;;;;;;5020395;28;20084;-83
2021/12/23 06:14:21;;;;;;;17.23;6.53;;;-3.40;99.90;;;;;;5000244;28;20096;-85
2021/12/23 06:17:01;;;;;;;15.90;6.00;;;-3.30;99.90;;;;;;5000061;28;20041;-85
2021/12/23 06:19:39;;;;;;;18.43;6.73;;;-3.40;99.90;;;;;;5017165;28;20044;-85
2021/12/23 06:22:07;;;;;;;19.83;5.57;;;-3.40;99.90;;;;;;4999866;28;20042;-86
2021/12/23 06:24:50;;;;;;;14.90;5.47;;;-3.50;99.90;;;;;;5016726;28;20018;-86
2021/12/23 06:27:22;;;;;;;19.38;5.57;;;-3.50;99.90;;;;;;5021595;28;20482;-86
2021/12/23 06:30:18;;;;;;;;;;;-3.50;99.90;;;;;;5017985;28;20088;-85
2021/12/23 06:32:48;;;;;;;15.07;5.80;;;-3.60;99.90;;;;;;5013907;28;19959;-85
2021/12/23 06:35:36;;;;;;;13.20;5.13;;;-3.40;99.90;;;;;;5020918;28;20093;-85
2021/12/23 06:38:21;;;;;;;15.47;6.73;;;-3.60;99.90;;;;;;5017991;28;20060;-86
2021/12/23 06:41:12;;;;;;;16.97;6.27;;;-3.50;99.90;;;;;;5003187;28;20029;-86
2021/12/23 06:43:47;;;;;;;14.20;5.87;;;-3.60;99.90;;;;;;5018721;28;20041;-87
2021/12/23 06:46:13;;;;;;;18.43;6.30;;;-3.50;99.90;;;;;;5020324;28;20045;-86
2021/12/23 06:48:44;;;;;;;19.83;6.60;;;-3.60;99.90;;;;;;5006051;28;20033;-86
2021/12/23 06:51:41;;;;;;;19.70;6.50;;;-3.60;99.90;;;;;;5006520;28;20029;-85
2021/12/23 06:54:11;;;;;;;14.77;6.17;;;-3.60;99.90;;;;;;5011894;28;20562;-85
2021/12/23 06:56:57;;;;;;;18.17;6.93;;;-3.60;99.90;;;;;;5023928;28;20120;-86
2021/12/23 06:59:32;;;;;;;19.13;7.03;;;-3.70;99.90;;;;;;5024077;28;20045;-87
2021/12/23 07:02:06;;;;;;;18.70;7.27;;;-3.80;99.90;;;;;;5012180;28;20026;-86
2021/12/23 07:04:41;;;;;;;19.47;6.80;;;-3.80;99.90;;;;;;5007107;28;20037;-86
2021/12/23 07:07:18;;;;;;;20.70;6.60;;;-3.80;99.90;;;;;;5022887;28;20065;-86
2021/12/23 07:09:52;;;;;;;19.33;7.40;;;-3.80;99.90;;;;;;5024297;28;20037;-86
2021/12/23 07:12:18;;;;;;;19.53;6.83;;;-3.80;99.90;;;;;;5014026;28;20038;-86
2021/12/23 07:14:43;;;;;;;21.10;6.43;;;-3.80;99.90;;;;;;5033190;28;20040;-85
2021/12/23 07:17:09;;;;;;;21.17;7.67;;;-3.80;99.90;;;;;;5010744;28;20030;-86
2021/12/23 07:19:35;;;;;;;15.10;6.27;;;-3.80;99.90;;;;;;5004155;28;20057;-85
2021/12/23 07:22:16;;;;;;;21.90;8.10;;;-3.80;99.90;;;;;;5020851;28;20033;-85
2021/12/23 07:24:45;;;;;;;23.53;6.77;;;-3.80;99.90;;;;;;5019289;28;20021;-86
2021/12/23 07:27:17;;;;;;;17.60;6.30;;;-3.70;99.90;;;;;;5020546;28;20025;-86
2021/12/23 07:29:43;;;;;;;17.63;7.20;;;-3.70;99.90;;;;;;5018134;28;20036;-85
2021/12/23 07:32:08;;;;;;;16.60;7.37;;;-3.70;99.90;;;;;;5038557;28;20029;-86
2021/12/23 07:34:40;;;;;;;19.50;6.20;;;-3.70;99.90;;;;;;5022244;28;20649;-86
2021/12/23 07:37:18;;;;;;;13.55;7.10;;;-3.70;99.90;;;;;;5023368;28;20040;-86
2021/12/23 07:39:44;;;;;;;16.43;7.57;;;-3.70;99.90;;;;;;5021686;28;20040;-87
2021/12/23 07:42:15;;;;;;;23.23;7.50;;;-3.70;99.90;;;;;;5021881;28;20025;-86
2021/12/23 07:44:44;;;;;;;21.53;7.27;;;-3.60;99.90;;;;;;5022677;28;20018;-86
2021/12/23 07:47:11;;;;;;;19.13;6.17;;;-3.60;99.90;;;;;;5020386;28;20022;-86
2021/12/23 07:49:36;;;;;;;23.03;7.23;;;-3.60;99.90;;;;;;5036960;28;20399;-87
2021/12/23 07:52:03;;;;;;;21.63;7.37;;;-3.60;99.90;;;;;;5036102;28;20105;-86
2021/12/23 07:54:55;;;;;;;;;;;;;;;;;;;;;
2021/12/23 07:57:44;;;;;;;;;;;-3.50;99.90;;;;;;5020894;28;20102;-86
2021/12/23 08:00:33;;;;;;;17.73;6.30;;;-3.50;99.90;;;;;;5018949;28;19905;-87
2021/12/23 08:03:08;;;;;;;19.77;6.50;;;-3.50;99.90;;;;;;5016009;28;20021;-87
2021/12/23 08:05:35;;;;;;;20.30;7.33;;;-3.40;99.90;;;;;;5008447;28;20085;-87
2021/12/23 08:08:02;;;;;;;19.63;8.00;;;-3.40;99.90;;;;;;5020917;28;20017;-87
2021/12/23 08:10:40;;;;;;;24.77;8.17;;;-3.40;99.90;;;;;;5016233;28;20017;-87
2021/12/23 08:13:34;;;;;;;26.13;8.07;;;-3.30;99.90;;;;;;5014109;28;20029;-86
2021/12/23 08:16:37;;;;;;;22.40;7.60;;;-3.20;99.90;;;;;;5030442;28;20327;-87
2021/12/23 08:19:08;;;;;;;20.42;7.10;;;-3.10;99.90;;;;;;5000102;28;20407;-87
2021/12/23 08:24:46;;;;;;;18.97;7.00;;;-3.00;99.90;;;;;;5034704;28;20116;-87
2021/12/23 08:27:16;;;;;;;17.73;7.33;;;-2.80;99.90;;;;;;5018128;28;20117;-88
2021/12/23 08:29:55;;;;;;;25.00;7.67;;;-2.70;99.90;;;;;;5020021;28;20036;-87
2021/12/23 08:32:29;;;;;;;18.97;7.80;;;-2.60;99.90;;;;;;5019800;28;20098;-88
2021/12/23 08:35:06;;;;;;;21.77;8.43;;;-2.40;99.90;;;;;;5017640;28;20461;-86
2021/12/23 08:37:47;;;;;;;;;;;;;;;;;;;;;
2021/12/23 08:45:19;;;;;;;23.70;7.83;;;-2.30;99.90;;;;;;5006753;28;20046;-85
2021/12/23 08:47:47;;;;;;;26.77;9.13;;;-2.30;99.90;;;;;;5000992;28;20069;-86
2021/12/23 08:50:21;;;;;;;19.93;7.40;;;-2.30;99.90;;;;;;4997093;28;20030;-86
2021/12/23 08:53:38;;;;;;;22.80;8.17;;;-2.20;99.90;;;;;;4985742;28;20072;-88
2021/12/23 08:56:26;;;;;;;;;;;;;;;;;;;;;
2021/12/23 08:59:26;;;;;;;;;;;;;;;;;;;;;
2021/12/23 09:02:02;;;;;;;22.00;8.20;;;-2.10;99.90;;;;;;4996093;28;20448;-88
2021/12/23 09:05:36;;;;;;;22.97;7.77;;;-2.00;99.90;;;;;;4978563;28;20034;-88
2021/12/23 09:08:05;;;;;;;19.03;7.70;;;-1.90;99.90;;;;;;4997238;28;20090;-87
2021/12/23 09:10:34;;;;;;;22.70;8.10;;;-1.80;99.90;;;;;;4990577;28;20049;-86
2021/12/23 09:13:03;;;;;;;20.93;8.23;;;-1.70;99.90;;;;;;4987351;28;20107;-85
2021/12/23 09:15:31;;;;;;;19.57;8.07;;;-1.60;99.90;;;;;;4970512;28;20027;-85
2021/12/23 09:17:57;;;;;;;22.73;8.93;;;-1.50;99.90;;;;;;4978692;28;20027;-86
2021/12/23 09:20:29;;;;;;;25.07;9.70;;;-1.60;99.90;;;;;;4998459;28;20449;-86
2021/12/23 09:22:54;;;;;;;23.37;8.53;;;-1.60;99.90;;;;;;4982856;28;20045;-86
2021/12/23 09:25:30;;;;;;;23.00;7.53;;;-1.60;99.90;;;;;;4990437;28;20046;-85
2021/12/23 09:33:06;;;;;;;22.03;8.17;;;-1.60;99.90;;;;;;5002193;28;20155;-86
2021/12/23 09:35:36;;;;;;;20.97;8.60;;;-1.50;99.90;;;;;;4986836;28;20031;-86
2021/12/23 09:39:29;;;;;;;;;;;;;;;;;;;;;
2021/12/23 09:57:10;;;;;;;28.17;7.87;;;-1.10;99.90;;;;;;5011634;28;20586;-89
2021/12/23 10:06:54;;;;;;;24.80;8.53;;;-0.90;99.90;;;;;;4868279;29;20041;-89
2021/12/23 10:09:42;;;;;;;24.93;7.97;;;-0.90;99.90;;;;;;4869086;29;20028;-89
2021/12/23 10:31:52;;;;;;;22.13;8.40;;;-0.60;99.90;;;;;;5028005;28;20017;-89
2021/12/23 10:37:20;;;;;;;18.50;7.27;;;-0.40;99.90;;;;;;5018866;28;20097;-88
2021/12/23 10:40:03;;;;;;;19.40;7.40;;;-0.40;99.90;;;;;;5005625;28;20078;-88
2021/12/23 10:42:32;;;;;;;19.73;7.40;;;-0.30;99.90;;;;;;5009459;28;20026;-88
2021/12/23 10:45:02;;;;;;;23.93;8.23;;;-0.20;99.90;;;;;;5008037;28;20034;-87
2021/12/23 10:47:47;;;;;;;19.47;7.77;;;0.00;99.90;;;;;;5004278;28;20082;-89
2021/12/23 10:50:15;;;;;;;21.07;8.50;;;0.00;99.90;;;;;;5004883;28;20025;-88
2021/12/23 10:53:10;;;;;;;22.50;7.60;;;0.20;99.90;;;;;;5005852;28;20041;-89
2021/12/23 10:58:33;;;;;;;17.80;8.30;;;0.30;99.90;;;;;;5024119;28;20593;-89
2021/12/23 11:01:04;;;;;;;19.87;7.33;;;0.30;99.90;;;;;;5005917;28;20098;-88
2021/12/23 11:03:55;;;;;;;20.70;8.17;;;0.40;99.90;;;;;;5010636;28;20206;-89
2021/12/23 11:06:33;;;;;;;19.65;7.38;;;0.50;99.90;;;;;;5021111;28;20437;-89
2021/12/23 11:27:22;;;;;;;18.73;7.27;;;0.60;99.90;;;;;;5007221;28;20403;-88
2021/12/23 11:30:15;;;;;;;19.67;6.93;;;0.90;99.90;;;;;;5022859;28;20056;-87
2021/12/23 11:37:59;;;;;;;17.07;6.70;;;1.10;99.90;;;;;;5006001;28;20117;-87
2021/12/23 11:45:48;;;;;;;18.37;7.03;;;1.40;99.90;;;;;;5023158;28;20116;-87
2021/12/23 11:48:16;;;;;;;14.77;6.50;;;1.50;99.90;;;;;;5023072;28;20018;-89
2021/12/23 11:51:07;;;;;;;17.13;7.43;;;1.70;99.90;;;;;;5025145;28;20010;-88
2021/12/23 11:53:37;;;;;;;16.07;6.50;;;1.70;99.90;;;;;;5008187;28;20057;-88
2021/12/23 11:56:11;;;;;;;14.87;6.77;;;1.90;99.90;;;;;;5015707;28;20019;-88
2021/12/23 11:58:44;;;;;;;14.17;6.50;;;2.00;99.90;;;;;;5005929;28;20026;-88
2021/12/23 12:01:22;;;;;;;18.30;7.60;;;2.10;99.90;;;;;;4997993;28;20054;-87
2021/12/23 12:04:08;;;;;;;16.40;6.37;;;2.10;99.90;;;;;;5014131;28;20086;-88
2021/12/23 12:06:40;;;;;;;17.13;6.23;;;2.20;99.90;;;;;;5018558;28;20018;-88
2021/12/23 12:09:52;;;;;;;14.55;5.68;;;2.40;99.90;;;;;;5012133;28;20082;-88
2021/12/23 12:12:18;;;;;;;13.25;6.10;;;2.40;99.90;;;;;;4986342;28;20045;-87
2021/12/23 12:14:51;;;;;;;15.37;5.50;;;2.60;99.90;;;;;;5002927;28;20005;-88
2021/12/23 12:17:33;;;;;;;15.23;5.97;;;2.70;99.90;;;;;;5021419;28;20038;-88
2021/12/23 12:24:13;;;;;;;;;;;;;;;;;;;;;
2021/12/23 12:27:43;;;;;;;;;;;;;;;;;;;;;
2021/12/23 13:00:43;;;;;;;11.13;3.50;;;3.70;99.90;;;;;;5101207;27;1591863;-88
2021/12/23 13:03:47;;;;;;;11.07;4.00;;;3.80;99.90;;;;;;5115415;28;20079;-89
2021/12/23 13:06:29;;;;;;;11.00;3.97;;;3.80;99.90;;;;;;5108291;28;20479;-89
2021/12/23 13:09:22;;;;;;;7.55;3.15;;;3.80;99.90;;;;;;5113351;28;20035;-89
2021/12/23 13:11:50;;;;;;;9.65;3.95;;;3.90;99.90;;;;;;5131433;28;20023;-89
2021/12/23 13:14:57;;;;;;;12.43;4.80;;;4.00;99.90;;;;;;5111102;28;20380;-90
2021/12/23 13:17:49;;;;;;;12.20;5.13;;;4.10;99.90;;;;;;5106670;28;20046;-89
2021/12/23 13:20:18;;;;;;;11.20;4.43;;;4.20;99.90;;;;;;5110342;28;20027;-89
2021/12/23 13:23:13;;;;;;;9.40;4.30;;;4.20;99.90;;;;;;5112751;28;20027;-89
2021/12/23 13:26:10;;;;;;;11.93;3.70;;;4.20;99.90;;;;;;5101686;28;20070;-89
2021/12/23 13:28:55;;;;;;;8.50;3.60;;;4.30;99.90;;;;;;5105652;27;20027;-89
2021/12/23 13:31:29;;;;;;;8.03;3.37;;;4.30;99.90;;;;;;5109634;28;20027;-89
2021/12/23 13:34:06;;;;;;;7.80;3.47;;;4.40;99.90;;;;;;5099908;28;20035;-89
2021/12/23 13:36:44;;;;;;;8.67;2.70;;;4.40;99.90;;;;;;5110324;28;20479;-89
2021/12/23 13:39:33;;;;;;;7.47;3.00;;;4.30;99.90;;;;;;5106563;28;20042;-89
2021/12/23 13:42:06;;;;;;;8.30;3.07;;;4.40;99.90;;;;;;5112382;28;20039;-87
2021/12/23 13:44:36;;;;;;;7.30;3.13;;;4.50;99.90;;;;;;5108176;28;20020;-86
2021/12/23 13:47:04;;;;;;;6.80;2.80;;;4.50;99.90;;;;;;5127867;28;20012;-86
2021/12/23 13:49:36;;;;;;;7.13;2.77;;;4.60;99.90;;;;;;5102775;27;20039;-86
2021/12/23 13:52:16;;;;;;;6.40;3.05;;;4.80;99.90;;;;;;5126420;28;20144;-86
2021/12/23 13:54:42;;;;;;;9.57;4.23;;;4.80;99.90;;;;;;5122922;28;20050;-86
2021/12/23 13:57:12;;;;;;;7.73;3.20;;;4.90;99.90;;;;;;5105414;28;20523;-86
2021/12/23 13:59:38;;;;;;;6.97;2.70;;;5.00;99.90;;;;;;5108444;28;20035;-86
2021/12/23 14:02:14;;;;;;;5.30;2.40;;;5.00;99.90;;;;;;5108566;27;20096;-86
2021/12/23 14:04:46;;;;;;;6.73;2.80;;;5.20;99.90;;;;;;5111994;28;20030;-86
2021/12/23 14:07:26;;;;;;;6.60;1.80;;;5.20;99.90;;;;;;5114241;28;20405;-87
2021/12/23 14:10:03;;;;;;;5.13;1.97;;;5.30;99.90;;;;;;5109534;28;20489;-86
2021/12/23 14:12:59;;;;;;;4.43;2.07;;;5.30;99.90;;;;;;5117241;27;20018;-86
2021/12/23 14:15:30;;;;;;;4.73;1.60;;;5.30;99.90;;;;;;5120685;28;20028;-85
2021/12/23 14:18:03;;;;;;;5.63;1.93;;;5.40;99.90;;;;;;5120966;28;20039;-85
2021/12/23 14:23:43;;;;;;;4.53;1.80;;;5.40;99.90;;;;;;5114726;28;20066;-86
2021/12/23 14:26:14;;;;;;;4.37;1.83;;;5.40;99.90;;;;;;5108656;28;20024;-86
2021/12/23 14:28:47;;;;;;;6.23;2.10;;;5.40;99.90;;;;;;5095220;28;20111;-86
2021/12/23 14:31:36;;;;;;;5.57;2.33;;;5.40;99.90;;;;;;5093966;27;20042;-87
2021/12/23 14:34:12;;;;;;;5.97;2.10;;;5.40;99.90;;;;;;5105407;27;20055;-86
2021/12/23 14:36:40;;;;;;;4.73;1.70;;;5.40;99.90;;;;;;5111053;28;20071;-86
2021/12/23 14:39:11;;;;;;;6.07;2.30;;;5.30;99.90;;;;;;5092211;28;20081;-85
2021/12/23 14:42:03;;;;;;;5.73;2.03;;;5.40;99.90;;;;;;5108400;27;20035;-86
2021/12/23 14:44:30;;;;;;;4.07;1.53;;;5.40;99.90;;;;;;5097954;28;20044;-87
2021/12/23 14:47:07;;;;;;;4.87;1.90;;;5.40;99.90;;;;;;5092385;28;20129;-87
2021/12/23 14:52:24;;;;;;;4.72;1.85;;;5.50;99.90;;;;;;5110736;27;20027;-86
2021/12/23 14:55:08;;;;;;;4.40;1.57;;;5.50;99.90;;;;;;5110423;28;20099;-86
2021/12/23 14:57:38;;;;;;;3.20;1.50;;;5.40;99.90;;;;;;5093074;28;20062;-86
2021/12/23 15:00:15;;;;;;;6.23;2.07;;;5.40;99.90;;;;;;5109368;28;20352;-87
2021/12/23 15:02:40;;;;;;;6.53;1.60;;;5.40;99.90;;;;;;5093204;28;20043;-88
2021/12/23 15:05:16;;;;;;;5.57;2.00;;;5.40;99.90;;;;;;5090516;28;20116;-87
2021/12/23 15:07:55;;;;;;;6.43;1.90;;;5.50;99.90;;;;;;5110384;28;20094;-87
2021/12/23 15:10:28;;;;;;;4.13;1.67;;;5.50;99.90;;;;;;5092657;28;20023;-87
2021/12/23 15:12:54;;;;;;;5.97;2.13;;;5.60;99.90;;;;;;5110622;28;20050;-87
2021/12/23 15:15:33;;;;;;;5.37;1.70;;;5.50;99.90;;;;;;5111550;28;20057;-87
2021/12/23 15:18:26;;;;;;;4.07;1.50;;;5.50;99.90;;;;;;5113293;27;20019;-86
2021/12/23 15:20:54;;;;;;;5.67;2.10;;;5.50;99.90;;;;;;5112253;28;20039;-86
2021/12/23 15:23:45;;;;;;;4.60;1.63;;;5.50;99.90;;;;;;5092134;28;20012;-87
2021/12/23 15:26:25;;;;;;;4.47;1.90;;;5.60;99.90;;;;;;5107112;28;20023;-86
2021/12/23 15:29:05;;;;;;;4.67;2.10;;;5.50;99.90;;;;;;5111539;28;20038;-87
2021/12/23 15:31:32;;;;;;;4.73;1.87;;;5.50;99.90;;;;;;5093199;28;20460;-87
2021/12/23 15:33:58;;;;;;;6.03;2.00;;;5.60;99.90;;;;;;5093451;28;20016;-87
2021/12/23 15:36:23;;;;;;;5.33;1.67;;;5.50;99.90;;;;;;5091046;28;20028;-86
2021/12/23 15:38:49;;;;;;;4.27;1.60;;;5.60;99.90;;;;;;5112179;28;20102;-87
2021/12/23 15:41:15;;;;;;;4.40;1.57;;;5.60;99.90;;;;;;5111940;28;20031;-87
2021/12/23 15:43:40;;;;;;;4.67;2.00;;;5.60;99.90;;;;;;5087393;27;20054;-87
2021/12/23 15:46:06;;;;;;;4.93;1.80;;;5.60;99.90;;;;;;5109243;28;20024;-87
2021/12/23 15:48:34;;;;;;;5.17;1.97;;;5.60;99.90;;;;;;5110394;28;20126;-87
2021/12/23 15:51:01;;;;;;;5.60;1.70;;;5.60;99.90;;;;;;5108855;28;20032;-87
2021/12/23 15:53:27;;;;;;;5.53;2.33;;;5.60;99.90;;;;;;5109142;27;20095;-87
2021/12/23 15:55:56;;;;;;;5.50;1.93;;;5.60;99.90;;;;;;5109560;28;20378;-87
2021/12/23 15:58:22;;;;;;;7.20;2.00;;;5.50;99.90;;;;;;5091609;28;20030;-87
2021/12/23 16:00:48;;;;;;;6.83;2.67;;;5.50;99.90;;;;;;5108673;28;20023;-87